sensor_id;sensor_type;location;lat;lon;timestamp;temperature;humidity
52034;DHT22;38045;52.988;6.536;2022-07-29T00:00:39;15.40;99.90
52034;DHT22;38045;52.988;6.536;2022-07-29T00:03:05;15.40;99.90
52034;DHT22;38045;52.988;6.536;2022-07-29T00:05:30;15.40;99.90
52034;DHT22;38045;52.988;6.536;2022-07-29T00:07:56;15.40;99.90
52034;DHT22;38045;52.988;6.536;2022-07-29T00:10:22;15.30;99.90
52034;DHT22;38045;52.988;6.536;2022-07-29T00:12:47;15.40;99.90
52034;DHT22;38045;52.988;6.536;2022-07-29T00:15:13;15.40;99.90
52034;DHT22;38045;52.988;6.536;2022-07-29T00:17:38;15.40;99.90
52034;DHT22;38045;52.988;6.536;2022-07-29T00:20:04;15.30;99.90
52034;DHT22;38045;52.988;6.536;2022-07-29T00:22:30;15.30;99.90
52034;DHT22;38045;52.988;6.536;2022-07-29T00:24:56;15.30;99.90
52034;DHT22;38045;52.988;6.536;2022-07-29T00:27:22;15.30;99.90
52034;DHT22;38045;52.988;6.536;2022-07-29T00:29:47;15.30;99.90
52034;DHT22;38045;52.988;6.536;2022-07-29T00:32:13;15.30;99.90
52034;DHT22;38045;52.988;6.536;2022-07-29T00:34:39;15.30;99.90
52034;DHT22;38045;52.988;6.536;2022-07-29T00:37:23;15.30;99.90
52034;DHT22;38045;52.988;6.536;2022-07-29T00:39:49;15.30;99.90
52034;DHT22;38045;52.988;6.536;2022-07-29T00:42:15;15.30;99.90
52034;DHT22;38045;52.988;6.536;2022-07-29T00:44:42;15.30;99.90
52034;DHT22;38045;52.988;6.536;2022-07-29T00:47:08;15.20;99.90
52034;DHT22;38045;52.988;6.536;2022-07-29T00:49:35;15.30;99.90
52034;DHT22;38045;52.988;6.536;2022-07-29T00:52:03;15.30;99.90
52034;DHT22;38045;52.988;6.536;2022-07-29T00:54:29;15.30;99.90
52034;DHT22;38045;52.988;6.536;2022-07-29T00:56:58;15.30;99.90
52034;DHT22;38045;52.988;6.536;2022-07-29T00:59:23;15.30;99.90
52034;DHT22;38045;52.988;6.536;2022-07-29T01:01:49;15.30;99.90
52034;DHT22;38045;52.988;6.536;2022-07-29T01:04:14;15.20;99.90
52034;DHT22;38045;52.988;6.536;2022-07-29T01:06:41;15.30;99.90
52034;DHT22;38045;52.988;6.536;2022-07-29T01:09:07;15.20;99.90
52034;DHT22;38045;52.988;6.536;2022-07-29T01:11:34;15.20;99.90
52034;DHT22;38045;52.988;6.536;2022-07-29T01:14:01;15.20;99.90
52034;DHT22;38045;52.988;6.536;2022-07-29T01:17:00;15.20;99.90
52034;DHT22;38045;52.988;6.536;2022-07-29T01:30:30;15.20;99.90
52034;DHT22;38045;52.988;6.536;2022-07-29T01:33:02;15.20;99.90
52034;DHT22;38045;52.988;6.536;2022-07-29T01:35:38;15.20;99.90
52034;DHT22;38045;52.988;6.536;2022-07-29T01:38:25;15.20;99.90
52034;DHT22;38045;52.988;6.536;2022-07-29T01:40:58;15.10;99.90
52034;DHT22;38045;52.988;6.536;2022-07-29T01:43:32;15.10;99.90
52034;DHT22;38045;52.988;6.536;2022-07-29T01:46:04;15.20;99.90
52034;DHT22;38045;52.988;6.536;2022-07-29T01:48:47;15.10;99.90
52034;DHT22;38045;52.988;6.536;2022-07-29T01:51:19;15.10;99.90
52034;DHT22;38045;52.988;6.536;2022-07-29T01:56:24;15.10;99.90
52034;DHT22;38045;52.988;6.536;2022-07-29T01:58:52;15.20;99.90
52034;DHT22;38045;52.988;6.536;2022-07-29T02:01:19;15.20;99.90
52034;DHT22;38045;52.988;6.536;2022-07-29T02:03:46;15.20;99.90
52034;DHT22;38045;52.988;6.536;2022-07-29T02:06:15;15.20;99.90
52034;DHT22;38045;52.988;6.536;2022-07-29T02:08:43;15.20;99.90
52034;DHT22;38045;52.988;6.536;2022-07-29T02:11:10;15.20;99.90
52034;DHT22;38045;52.988;6.536;2022-07-29T02:13:37;15.20;99.90
52034;DHT22;38045;52.988;6.536;2022-07-29T02:16:05;15.20;99.90
52034;DHT22;38045;52.988;6.536;2022-07-29T02:18:33;15.20;99.90
52034;DHT22;38045;52.988;6.536;2022-07-29T02:21:01;15.20;99.90
52034;DHT22;38045;52.988;6.536;2022-07-29T02:23:29;15.20;99.90
52034;DHT22;38045;52.988;6.536;2022-07-29T02:25:56;15.20;99.90
52034;DHT22;38045;52.988;6.536;2022-07-29T02:28:25;15.20;99.90
52034;DHT22;38045;52.988;6.536;2022-07-29T02:30:53;15.20;99.90
52034;DHT22;38045;52.988;6.536;2022-07-29T02:33:21;15.20;99.90
52034;DHT22;38045;52.988;6.536;2022-07-29T02:35:48;15.20;99.90
52034;DHT22;38045;52.988;6.536;2022-07-29T02:38:15;15.20;99.90
52034;DHT22;38045;52.988;6.536;2022-07-29T02:41:04;15.20;99.90
52034;DHT22;38045;52.988;6.536;2022-07-29T02:43:32;15.20;99.90
52034;DHT22;38045;52.988;6.536;2022-07-29T02:45:59;15.20;99.90
52034;DHT22;38045;52.988;6.536;2022-07-29T02:48:36;15.20;99.90
52034;DHT22;38045;52.988;6.536;2022-07-29T02:51:07;15.20;99.90
52034;DHT22;38045;52.988;6.536;2022-07-29T02:53:34;15.20;99.90
52034;DHT22;38045;52.988;6.536;2022-07-29T02:56:05;15.20;99.90
52034;DHT22;38045;52.988;6.536;2022-07-29T02:58:34;15.20;99.90
52034;DHT22;38045;52.988;6.536;2022-07-29T03:01:04;15.20;99.90
52034;DHT22;38045;52.988;6.536;2022-07-29T03:03:36;15.20;99.90
52034;DHT22;38045;52.988;6.536;2022-07-29T03:06:03;15.20;99.90
52034;DHT22;38045;52.988;6.536;2022-07-29T03:08:30;15.30;99.90
52034;DHT22;38045;52.988;6.536;2022-07-29T03:10:57;15.20;99.90
52034;DHT22;38045;52.988;6.536;2022-07-29T03:13:23;15.20;99.90
52034;DHT22;38045;52.988;6.536;2022-07-29T03:15:50;15.20;99.90
52034;DHT22;38045;52.988;6.536;2022-07-29T03:18:16;15.20;99.90
52034;DHT22;38045;52.988;6.536;2022-07-29T03:20:42;15.20;99.90
52034;DHT22;38045;52.988;6.536;2022-07-29T03:23:08;15.20;99.90
52034;DHT22;38045;52.988;6.536;2022-07-29T03:25:34;15.20;99.90
52034;DHT22;38045;52.988;6.536;2022-07-29T03:27:59;15.20;99.90
52034;DHT22;38045;52.988;6.536;2022-07-29T03:30:25;15.20;99.90
52034;DHT22;38045;52.988;6.536;2022-07-29T03:32:52;15.20;99.90
52034;DHT22;38045;52.988;6.536;2022-07-29T03:35:21;15.30;99.90
52034;DHT22;38045;52.988;6.536;2022-07-29T03:37:46;15.20;99.90
52034;DHT22;38045;52.988;6.536;2022-07-29T03:40:16;15.20;99.90
52034;DHT22;38045;52.988;6.536;2022-07-29T03:42:44;15.20;99.90
52034;DHT22;38045;52.988;6.536;2022-07-29T03:45:13;15.20;99.90
52034;DHT22;38045;52.988;6.536;2022-07-29T03:47:44;15.20;99.90
52034;DHT22;38045;52.988;6.536;2022-07-29T03:50:12;15.20;99.90
52034;DHT22;38045;52.988;6.536;2022-07-29T03:52:40;15.20;99.90
52034;DHT22;38045;52.988;6.536;2022-07-29T03:55:06;15.20;99.90
52034;DHT22;38045;52.988;6.536;2022-07-29T03:57:33;15.20;99.90
52034;DHT22;38045;52.988;6.536;2022-07-29T04:00:02;15.20;99.90
52034;DHT22;38045;52.988;6.536;2022-07-29T04:02:29;15.10;99.90
52034;DHT22;38045;52.988;6.536;2022-07-29T04:04:54;15.10;99.90
52034;DHT22;38045;52.988;6.536;2022-07-29T04:07:20;15.20;99.90
52034;DHT22;38045;52.988;6.536;2022-07-29T04:09:46;15.10;99.90
52034;DHT22;38045;52.988;6.536;2022-07-29T04:12:11;15.20;99.90
52034;DHT22;38045;52.988;6.536;2022-07-29T04:14:37;15.20;99.90
52034;DHT22;38045;52.988;6.536;2022-07-29T04:17:03;15.10;99.90
52034;DHT22;38045;52.988;6.536;2022-07-29T04:19:29;15.20;99.90
52034;DHT22;38045;52.988;6.536;2022-07-29T04:21:56;15.20;99.90
52034;DHT22;38045;52.988;6.536;2022-07-29T04:24:21;15.20;99.90
52034;DHT22;38045;52.988;6.536;2022-07-29T04:26:47;15.20;99.90
52034;DHT22;38045;52.988;6.536;2022-07-29T04:29:13;15.20;99.90
52034;DHT22;38045;52.988;6.536;2022-07-29T04:31:40;15.10;99.90
52034;DHT22;38045;52.988;6.536;2022-07-29T04:34:05;15.20;99.90
52034;DHT22;38045;52.988;6.536;2022-07-29T04:36:31;15.20;99.90
52034;DHT22;38045;52.988;6.536;2022-07-29T04:38:57;15.20;99.90
52034;DHT22;38045;52.988;6.536;2022-07-29T04:41:23;15.20;99.90
52034;DHT22;38045;52.988;6.536;2022-07-29T04:43:48;15.20;99.90
52034;DHT22;38045;52.988;6.536;2022-07-29T04:46:14;15.20;99.90
52034;DHT22;38045;52.988;6.536;2022-07-29T04:48:40;15.20;99.90
52034;DHT22;38045;52.988;6.536;2022-07-29T04:51:05;15.20;99.90
52034;DHT22;38045;52.988;6.536;2022-07-29T04:53:31;15.20;99.90
52034;DHT22;38045;52.988;6.536;2022-07-29T04:55:56;15.20;99.90
52034;DHT22;38045;52.988;6.536;2022-07-29T04:58:22;15.20;99.90
52034;DHT22;38045;52.988;6.536;2022-07-29T05:00:49;15.30;99.90
52034;DHT22;38045;52.988;6.536;2022-07-29T05:03:15;15.30;99.90
52034;DHT22;38045;52.988;6.536;2022-07-29T05:05:41;15.30;99.90
52034;DHT22;38045;52.988;6.536;2022-07-29T05:08:07;15.30;99.90
52034;DHT22;38045;52.988;6.536;2022-07-29T05:10:33;15.20;99.90
52034;DHT22;38045;52.988;6.536;2022-07-29T05:13:04;15.30;99.90
52034;DHT22;38045;52.988;6.536;2022-07-29T05:15:29;15.30;99.90
52034;DHT22;38045;52.988;6.536;2022-07-29T05:17:55;15.30;99.90
52034;DHT22;38045;52.988;6.536;2022-07-29T05:20:20;15.30;99.90
52034;DHT22;38045;52.988;6.536;2022-07-29T05:22:51;15.30;99.90
52034;DHT22;38045;52.988;6.536;2022-07-29T05:25:17;15.40;99.90
52034;DHT22;38045;52.988;6.536;2022-07-29T05:27:42;15.40;99.90
52034;DHT22;38045;52.988;6.536;2022-07-29T05:30:08;15.40;99.90
52034;DHT22;38045;52.988;6.536;2022-07-29T05:32:34;15.40;99.90
52034;DHT22;38045;52.988;6.536;2022-07-29T05:34:59;15.40;99.90
52034;DHT22;38045;52.988;6.536;2022-07-29T05:37:25;15.40;99.90
52034;DHT22;38045;52.988;6.536;2022-07-29T05:39:51;15.40;99.90
52034;DHT22;38045;52.988;6.536;2022-07-29T05:42:16;15.40;99.90
52034;DHT22;38045;52.988;6.536;2022-07-29T05:44:42;15.40;99.90
52034;DHT22;38045;52.988;6.536;2022-07-29T05:47:07;15.40;99.90
52034;DHT22;38045;52.988;6.536;2022-07-29T05:49:33;15.50;99.90
52034;DHT22;38045;52.988;6.536;2022-07-29T05:51:59;15.50;99.90
52034;DHT22;38045;52.988;6.536;2022-07-29T05:54:24;15.50;99.90
52034;DHT22;38045;52.988;6.536;2022-07-29T05:56:51;15.50;99.90
52034;DHT22;38045;52.988;6.536;2022-07-29T05:59:16;15.50;99.90
52034;DHT22;38045;52.988;6.536;2022-07-29T06:01:42;15.50;99.90
52034;DHT22;38045;52.988;6.536;2022-07-29T06:04:07;15.60;99.90
52034;DHT22;38045;52.988;6.536;2022-07-29T06:06:34;15.60;99.90
52034;DHT22;38045;52.988;6.536;2022-07-29T06:09:00;15.60;99.90
52034;DHT22;38045;52.988;6.536;2022-07-29T06:11:26;15.60;99.90
52034;DHT22;38045;52.988;6.536;2022-07-29T06:13:52;15.70;99.90
52034;DHT22;38045;52.988;6.536;2022-07-29T06:16:18;15.70;99.90
52034;DHT22;38045;52.988;6.536;2022-07-29T06:18:44;15.70;99.90
52034;DHT22;38045;52.988;6.536;2022-07-29T06:21:10;15.70;99.90
52034;DHT22;38045;52.988;6.536;2022-07-29T06:23:39;15.80;99.90
52034;DHT22;38045;52.988;6.536;2022-07-29T06:26:05;15.80;99.90
52034;DHT22;38045;52.988;6.536;2022-07-29T06:28:31;15.80;99.90
52034;DHT22;38045;52.988;6.536;2022-07-29T06:30:57;15.80;99.90
52034;DHT22;38045;52.988;6.536;2022-07-29T06:33:22;15.90;99.90
52034;DHT22;38045;52.988;6.536;2022-07-29T06:35:48;15.90;99.90
52034;DHT22;38045;52.988;6.536;2022-07-29T06:38:14;16.00;99.90
52034;DHT22;38045;52.988;6.536;2022-07-29T06:40:44;16.00;99.90
52034;DHT22;38045;52.988;6.536;2022-07-29T06:43:26;16.10;99.90
52034;DHT22;38045;52.988;6.536;2022-07-29T06:45:52;16.20;99.90
52034;DHT22;38045;52.988;6.536;2022-07-29T06:48:18;16.20;99.90
52034;DHT22;38045;52.988;6.536;2022-07-29T06:50:43;16.30;99.90
52034;DHT22;38045;52.988;6.536;2022-07-29T06:53:09;16.30;99.90
52034;DHT22;38045;52.988;6.536;2022-07-29T06:55:34;16.30;99.90
52034;DHT22;38045;52.988;6.536;2022-07-29T06:58:02;16.40;99.90
52034;DHT22;38045;52.988;6.536;2022-07-29T07:00:27;16.50;99.90
52034;DHT22;38045;52.988;6.536;2022-07-29T07:02:53;16.50;99.90
52034;DHT22;38045;52.988;6.536;2022-07-29T07:05:18;16.50;99.90
52034;DHT22;38045;52.988;6.536;2022-07-29T07:07:44;16.50;99.90
52034;DHT22;38045;52.988;6.536;2022-07-29T07:10:10;16.50;99.90
52034;DHT22;38045;52.988;6.536;2022-07-29T07:12:35;16.60;99.90
52034;DHT22;38045;52.988;6.536;2022-07-29T07:15:01;16.50;99.90
52034;DHT22;38045;52.988;6.536;2022-07-29T07:17:27;16.60;99.90
52034;DHT22;38045;52.988;6.536;2022-07-29T07:19:52;16.60;99.90
52034;DHT22;38045;52.988;6.536;2022-07-29T07:22:18;16.70;99.90
52034;DHT22;38045;52.988;6.536;2022-07-29T07:24:43;16.60;99.90
52034;DHT22;38045;52.988;6.536;2022-07-29T07:27:09;16.60;99.90
52034;DHT22;38045;52.988;6.536;2022-07-29T07:29:34;16.60;99.90
52034;DHT22;38045;52.988;6.536;2022-07-29T07:32:00;16.60;99.90
52034;DHT22;38045;52.988;6.536;2022-07-29T07:34:27;16.60;99.90
52034;DHT22;38045;52.988;6.536;2022-07-29T07:36:52;16.60;99.90
52034;DHT22;38045;52.988;6.536;2022-07-29T07:39:18;16.60;99.90
52034;DHT22;38045;52.988;6.536;2022-07-29T07:41:43;16.70;99.90
52034;DHT22;38045;52.988;6.536;2022-07-29T07:44:09;16.70;99.90
52034;DHT22;38045;52.988;6.536;2022-07-29T07:46:34;16.70;99.90
52034;DHT22;38045;52.988;6.536;2022-07-29T07:49:00;16.60;99.90
52034;DHT22;38045;52.988;6.536;2022-07-29T07:51:25;16.70;99.90
52034;DHT22;38045;52.988;6.536;2022-07-29T07:53:52;16.80;99.90
52034;DHT22;38045;52.988;6.536;2022-07-29T07:56:17;16.80;99.90
52034;DHT22;38045;52.988;6.536;2022-07-29T07:58:43;16.80;99.90
52034;DHT22;38045;52.988;6.536;2022-07-29T08:01:09;16.90;99.90
52034;DHT22;38045;52.988;6.536;2022-07-29T08:03:35;17.00;99.90
52034;DHT22;38045;52.988;6.536;2022-07-29T08:06:01;17.10;99.90
52034;DHT22;38045;52.988;6.536;2022-07-29T08:08:27;17.10;99.90
52034;DHT22;38045;52.988;6.536;2022-07-29T08:10:52;17.20;99.90
52034;DHT22;38045;52.988;6.536;2022-07-29T08:13:19;17.20;99.90
52034;DHT22;38045;52.988;6.536;2022-07-29T08:15:46;17.30;99.90
52034;DHT22;38045;52.988;6.536;2022-07-29T08:18:12;17.30;99.90
52034;DHT22;38045;52.988;6.536;2022-07-29T08:20:39;17.30;99.90
52034;DHT22;38045;52.988;6.536;2022-07-29T08:23:07;17.40;99.90
52034;DHT22;38045;52.988;6.536;2022-07-29T08:25:35;17.50;99.90
52034;DHT22;38045;52.988;6.536;2022-07-29T08:28:00;17.50;99.90
52034;DHT22;38045;52.988;6.536;2022-07-29T08:30:26;17.60;99.90
52034;DHT22;38045;52.988;6.536;2022-07-29T08:32:52;17.60;99.90
52034;DHT22;38045;52.988;6.536;2022-07-29T08:35:19;17.70;99.90
52034;DHT22;38045;52.988;6.536;2022-07-29T08:37:45;17.80;99.90
52034;DHT22;38045;52.988;6.536;2022-07-29T08:40:11;17.90;99.90
52034;DHT22;38045;52.988;6.536;2022-07-29T08:42:37;17.90;99.90
52034;DHT22;38045;52.988;6.536;2022-07-29T08:45:04;17.90;99.90
52034;DHT22;38045;52.988;6.536;2022-07-29T08:47:30;17.90;99.90
52034;DHT22;38045;52.988;6.536;2022-07-29T08:49:56;17.90;99.90
52034;DHT22;38045;52.988;6.536;2022-07-29T08:52:26;17.90;99.90
52034;DHT22;38045;52.988;6.536;2022-07-29T08:54:54;17.80;99.90
52034;DHT22;38045;52.988;6.536;2022-07-29T08:57:21;17.70;99.90
52034;DHT22;38045;52.988;6.536;2022-07-29T08:59:50;17.70;99.90
52034;DHT22;38045;52.988;6.536;2022-07-29T09:02:22;17.80;99.90
52034;DHT22;38045;52.988;6.536;2022-07-29T09:04:48;17.80;99.90
52034;DHT22;38045;52.988;6.536;2022-07-29T09:07:18;17.90;99.90
52034;DHT22;38045;52.988;6.536;2022-07-29T09:09:44;18.10;99.90
52034;DHT22;38045;52.988;6.536;2022-07-29T09:12:11;18.10;99.90
52034;DHT22;38045;52.988;6.536;2022-07-29T09:14:40;18.10;99.90
52034;DHT22;38045;52.988;6.536;2022-07-29T09:17:07;18.10;99.90
52034;DHT22;38045;52.988;6.536;2022-07-29T09:19:34;18.10;99.90
52034;DHT22;38045;52.988;6.536;2022-07-29T09:22:02;18.10;99.90
52034;DHT22;38045;52.988;6.536;2022-07-29T09:24:42;18.10;99.90
52034;DHT22;38045;52.988;6.536;2022-07-29T09:27:11;18.10;99.90
52034;DHT22;38045;52.988;6.536;2022-07-29T09:29:37;18.10;99.90
52034;DHT22;38045;52.988;6.536;2022-07-29T09:32:08;18.10;99.90
52034;DHT22;38045;52.988;6.536;2022-07-29T09:34:34;18.10;99.90
52034;DHT22;38045;52.988;6.536;2022-07-29T09:37:00;18.10;99.90
52034;DHT22;38045;52.988;6.536;2022-07-29T09:39:46;18.10;99.90
52034;DHT22;38045;52.988;6.536;2022-07-29T09:42:12;18.20;99.90
52034;DHT22;38045;52.988;6.536;2022-07-29T09:44:49;18.20;99.90
52034;DHT22;38045;52.988;6.536;2022-07-29T09:47:16;18.20;99.90
52034;DHT22;38045;52.988;6.536;2022-07-29T09:52:21;18.20;99.90
52034;DHT22;38045;52.988;6.536;2022-07-29T09:54:47;18.30;99.90
52034;DHT22;38045;52.988;6.536;2022-07-29T09:57:28;18.30;99.90
52034;DHT22;38045;52.988;6.536;2022-07-29T10:00:05;18.30;99.90
52034;DHT22;38045;52.988;6.536;2022-07-29T10:02:34;18.30;99.90
52034;DHT22;38045;52.988;6.536;2022-07-29T10:05:01;18.30;99.90
52034;DHT22;38045;52.988;6.536;2022-07-29T10:07:43;18.30;99.90
52034;DHT22;38045;52.988;6.536;2022-07-29T10:10:10;18.30;99.90
52034;DHT22;38045;52.988;6.536;2022-07-29T10:12:48;18.30;99.90
52034;DHT22;38045;52.988;6.536;2022-07-29T10:15:15;18.60;99.90
52034;DHT22;38045;52.988;6.536;2022-07-29T10:17:41;18.50;99.90
52034;DHT22;38045;52.988;6.536;2022-07-29T10:20:08;18.60;99.90
52034;DHT22;38045;52.988;6.536;2022-07-29T10:22:33;18.70;99.90
52034;DHT22;38045;52.988;6.536;2022-07-29T10:24:59;18.70;99.90
52034;DHT22;38045;52.988;6.536;2022-07-29T10:27:25;18.70;99.90
52034;DHT22;38045;52.988;6.536;2022-07-29T10:29:50;18.80;99.90
52034;DHT22;38045;52.988;6.536;2022-07-29T10:32:47;18.80;99.90
52034;DHT22;38045;52.988;6.536;2022-07-29T10:35:19;18.80;99.90
52034;DHT22;38045;52.988;6.536;2022-07-29T10:38:27;18.90;99.90
52034;DHT22;38045;52.988;6.536;2022-07-29T10:46:27;19.10;99.90
52034;DHT22;38045;52.988;6.536;2022-07-29T10:54:58;19.30;99.90
52034;DHT22;38045;52.988;6.536;2022-07-29T11:07:37;19.70;99.90
52034;DHT22;38045;52.988;6.536;2022-07-29T11:15:04;20.20;99.90
52034;DHT22;38045;52.988;6.536;2022-07-29T11:20:45;20.50;99.90
52034;DHT22;38045;52.988;6.536;2022-07-29T11:23:27;20.60;99.90
52034;DHT22;38045;52.988;6.536;2022-07-29T11:31:36;21.10;99.90
52034;DHT22;38045;52.988;6.536;2022-07-29T11:34:25;21.10;99.90
52034;DHT22;38045;52.988;6.536;2022-07-29T11:39:38;21.40;99.90
52034;DHT22;38045;52.988;6.536;2022-07-29T11:45:06;21.30;99.90
52034;DHT22;38045;52.988;6.536;2022-07-29T11:50:26;21.20;99.90
52034;DHT22;38045;52.988;6.536;2022-07-29T11:52:52;21.30;99.90
52034;DHT22;38045;52.988;6.536;2022-07-29T11:55:20;21.40;99.90
52034;DHT22;38045;52.988;6.536;2022-07-29T11:57:56;21.40;99.90
52034;DHT22;38045;52.988;6.536;2022-07-29T12:00:26;21.40;99.90
52034;DHT22;38045;52.988;6.536;2022-07-29T12:02:53;21.50;99.90
52034;DHT22;38045;52.988;6.536;2022-07-29T12:05:19;21.70;99.90
52034;DHT22;38045;52.988;6.536;2022-07-29T12:07:46;21.90;99.90
52034;DHT22;38045;52.988;6.536;2022-07-29T12:10:12;22.10;99.90
52034;DHT22;38045;52.988;6.536;2022-07-29T12:12:38;22.40;99.90
52034;DHT22;38045;52.988;6.536;2022-07-29T12:15:15;22.50;99.90
52034;DHT22;38045;52.988;6.536;2022-07-29T12:17:42;22.70;99.90
52034;DHT22;38045;52.988;6.536;2022-07-29T12:20:08;22.90;99.90
52034;DHT22;38045;52.988;6.536;2022-07-29T12:22:40;23.00;99.90
52034;DHT22;38045;52.988;6.536;2022-07-29T12:25:13;23.10;99.90
52034;DHT22;38045;52.988;6.536;2022-07-29T12:27:43;23.20;99.90
52034;DHT22;38045;52.988;6.536;2022-07-29T12:30:12;23.30;99.90
52034;DHT22;38045;52.988;6.536;2022-07-29T12:32:41;23.30;99.90
52034;DHT22;38045;52.988;6.536;2022-07-29T12:35:13;23.30;99.90
52034;DHT22;38045;52.988;6.536;2022-07-29T12:37:40;23.20;99.90
52034;DHT22;38045;52.988;6.536;2022-07-29T12:40:08;23.20;99.90
52034;DHT22;38045;52.988;6.536;2022-07-29T12:42:34;23.20;99.90
52034;DHT22;38045;52.988;6.536;2022-07-29T12:45:00;23.20;99.90
52034;DHT22;38045;52.988;6.536;2022-07-29T12:47:27;23.00;99.90
52034;DHT22;38045;52.988;6.536;2022-07-29T12:50:13;23.10;99.90
52034;DHT22;38045;52.988;6.536;2022-07-29T12:52:40;23.20;99.90
52034;DHT22;38045;52.988;6.536;2022-07-29T12:55:06;23.20;99.90
52034;DHT22;38045;52.988;6.536;2022-07-29T12:57:43;23.20;99.90
52034;DHT22;38045;52.988;6.536;2022-07-29T13:00:11;23.20;99.90
52034;DHT22;38045;52.988;6.536;2022-07-29T13:02:39;23.30;99.90
52034;DHT22;38045;52.988;6.536;2022-07-29T13:05:07;23.30;99.90
52034;DHT22;38045;52.988;6.536;2022-07-29T13:07:34;23.30;99.90
52034;DHT22;38045;52.988;6.536;2022-07-29T13:10:14;23.40;99.90
52034;DHT22;38045;52.988;6.536;2022-07-29T13:13:10;23.30;99.90
52034;DHT22;38045;52.988;6.536;2022-07-29T13:15:37;23.50;99.90
52034;DHT22;38045;52.988;6.536;2022-07-29T13:18:04;23.70;99.90
52034;DHT22;38045;52.988;6.536;2022-07-29T13:20:30;23.80;99.90
52034;DHT22;38045;52.988;6.536;2022-07-29T13:22:57;23.90;99.90
52034;DHT22;38045;52.988;6.536;2022-07-29T13:25:29;24.10;99.90
52034;DHT22;38045;52.988;6.536;2022-07-29T13:27:55;24.20;99.90
52034;DHT22;38045;52.988;6.536;2022-07-29T13:30:23;24.30;99.90
52034;DHT22;38045;52.988;6.536;2022-07-29T13:32:49;24.40;99.90
52034;DHT22;38045;52.988;6.536;2022-07-29T13:35:14;24.40;99.90
52034;DHT22;38045;52.988;6.536;2022-07-29T13:37:40;24.40;99.90
52034;DHT22;38045;52.988;6.536;2022-07-29T13:40:07;24.30;99.90
52034;DHT22;38045;52.988;6.536;2022-07-29T13:42:34;24.20;99.10
52034;DHT22;38045;52.988;6.536;2022-07-29T13:45:00;24.30;99.90
52034;DHT22;38045;52.988;6.536;2022-07-29T13:47:26;24.30;99.90
52034;DHT22;38045;52.988;6.536;2022-07-29T13:49:52;24.10;99.90
52034;DHT22;38045;52.988;6.536;2022-07-29T13:52:18;24.00;99.80
52034;DHT22;38045;52.988;6.536;2022-07-29T13:54:44;23.90;99.90
52034;DHT22;38045;52.988;6.536;2022-07-29T13:57:11;23.90;99.90
52034;DHT22;38045;52.988;6.536;2022-07-29T13:59:36;24.10;99.90
52034;DHT22;38045;52.988;6.536;2022-07-29T14:02:02;24.30;99.80
52034;DHT22;38045;52.988;6.536;2022-07-29T14:04:28;24.40;99.80
52034;DHT22;38045;52.988;6.536;2022-07-29T14:06:53;24.70;99.20
52034;DHT22;38045;52.988;6.536;2022-07-29T14:09:19;24.80;99.50
52034;DHT22;38045;52.988;6.536;2022-07-29T14:11:45;24.80;99.80
52034;DHT22;38045;52.988;6.536;2022-07-29T14:14:11;25.00;99.70
52034;DHT22;38045;52.988;6.536;2022-07-29T14:16:38;25.10;99.10
52034;DHT22;38045;52.988;6.536;2022-07-29T14:19:04;24.90;99.00
52034;DHT22;38045;52.988;6.536;2022-07-29T14:21:29;25.10;99.00
52034;DHT22;38045;52.988;6.536;2022-07-29T14:23:56;25.20;99.40
52034;DHT22;38045;52.988;6.536;2022-07-29T14:26:22;25.30;99.40
52034;DHT22;38045;52.988;6.536;2022-07-29T14:28:48;25.30;98.80
52034;DHT22;38045;52.988;6.536;2022-07-29T14:31:14;25.20;99.00
52034;DHT22;38045;52.988;6.536;2022-07-29T14:33:40;25.30;99.00
52034;DHT22;38045;52.988;6.536;2022-07-29T14:36:05;25.30;98.30
52034;DHT22;38045;52.988;6.536;2022-07-29T14:38:31;25.20;97.90
52034;DHT22;38045;52.988;6.536;2022-07-29T14:40:56;25.10;98.70
52034;DHT22;38045;52.988;6.536;2022-07-29T14:43:22;25.10;98.60
52034;DHT22;38045;52.988;6.536;2022-07-29T14:45:48;25.00;98.50
52034;DHT22;38045;52.988;6.536;2022-07-29T14:48:13;25.00;98.10
52034;DHT22;38045;52.988;6.536;2022-07-29T14:50:39;24.90;98.40
52034;DHT22;38045;52.988;6.536;2022-07-29T14:53:07;25.00;98.70
52034;DHT22;38045;52.988;6.536;2022-07-29T14:55:32;25.00;98.60
52034;DHT22;38045;52.988;6.536;2022-07-29T14:57:58;25.00;97.90
52034;DHT22;38045;52.988;6.536;2022-07-29T15:00:24;25.00;98.20
52034;DHT22;38045;52.988;6.536;2022-07-29T15:02:50;25.00;98.10
52034;DHT22;38045;52.988;6.536;2022-07-29T15:05:16;25.00;97.70
52034;DHT22;38045;52.988;6.536;2022-07-29T15:07:41;25.00;98.30
52034;DHT22;38045;52.988;6.536;2022-07-29T15:10:07;25.00;97.20
52034;DHT22;38045;52.988;6.536;2022-07-29T15:12:33;25.00;97.00
52034;DHT22;38045;52.988;6.536;2022-07-29T15:14:58;25.00;97.10
52034;DHT22;38045;52.988;6.536;2022-07-29T15:17:24;25.00;97.50
52034;DHT22;38045;52.988;6.536;2022-07-29T15:19:50;25.10;97.70
52034;DHT22;38045;52.988;6.536;2022-07-29T15:22:15;25.20;97.50
52034;DHT22;38045;52.988;6.536;2022-07-29T15:24:41;25.10;96.50
52034;DHT22;38045;52.988;6.536;2022-07-29T15:27:07;25.10;96.70
52034;DHT22;38045;52.988;6.536;2022-07-29T15:29:32;25.00;96.60
52034;DHT22;38045;52.988;6.536;2022-07-29T15:31:58;25.00;96.80
52034;DHT22;38045;52.988;6.536;2022-07-29T15:34:24;25.00;96.90
52034;DHT22;38045;52.988;6.536;2022-07-29T15:36:50;25.00;96.10
52034;DHT22;38045;52.988;6.536;2022-07-29T15:39:17;25.00;96.20
52034;DHT22;38045;52.988;6.536;2022-07-29T15:41:42;24.90;96.10
52034;DHT22;38045;52.988;6.536;2022-07-29T15:44:08;24.90;96.60
52034;DHT22;38045;52.988;6.536;2022-07-29T15:46:33;24.90;96.70
52034;DHT22;38045;52.988;6.536;2022-07-29T15:49:17;25.00;96.10
52034;DHT22;38045;52.988;6.536;2022-07-29T15:51:43;25.00;96.50
52034;DHT22;38045;52.988;6.536;2022-07-29T15:54:09;25.00;96.10
52034;DHT22;38045;52.988;6.536;2022-07-29T15:56:36;24.90;95.90
52034;DHT22;38045;52.988;6.536;2022-07-29T15:59:03;25.00;96.10
52034;DHT22;38045;52.988;6.536;2022-07-29T16:01:28;25.00;96.40
52034;DHT22;38045;52.988;6.536;2022-07-29T16:03:54;25.10;95.90
52034;DHT22;38045;52.988;6.536;2022-07-29T16:06:20;25.10;96.40
52034;DHT22;38045;52.988;6.536;2022-07-29T16:08:45;25.10;96.30
52034;DHT22;38045;52.988;6.536;2022-07-29T16:11:11;25.10;95.50
52034;DHT22;38045;52.988;6.536;2022-07-29T16:13:39;24.90;95.50
52034;DHT22;38045;52.988;6.536;2022-07-29T16:16:05;24.80;95.30
52034;DHT22;38045;52.988;6.536;2022-07-29T16:18:30;24.80;94.90
52034;DHT22;38045;52.988;6.536;2022-07-29T16:20:56;24.70;95.20
52034;DHT22;38045;52.988;6.536;2022-07-29T16:23:22;24.70;95.70
52034;DHT22;38045;52.988;6.536;2022-07-29T16:25:48;24.70;95.60
52034;DHT22;38045;52.988;6.536;2022-07-29T16:28:14;24.80;95.30
52034;DHT22;38045;52.988;6.536;2022-07-29T16:30:39;24.70;95.50
52034;DHT22;38045;52.988;6.536;2022-07-29T16:33:16;24.60;95.90